Main page
METAR-TAF:

METAR-TAF

Airports :

Verona, Italy

Verona Villafranca Airport

latitude: 45-23N, longitude: 010-52E, elevation: 67 m

Current weather observation

The report was made 17 minutes ago, at 18:50 UTC
Wind 4 kt from the North
Temperature 6°C
Humidity 81%
Pressure 1019 hPa
Visibility 10 km or more
Few clouds at a height of 8000 ft

METAR: LIPX 171850Z 36004KT 9999 FEW080 06/03 Q1019

Time: 20:07 (19:07 UTC)

Forecast

The report was made 2 hours and 7 minutes ago, at 17:00 UTC
Forecast valid from 17 at 18 UTC to 18 at 03 UTC
Wind 5 kt from variable directions
Visibility 10 km or more
no clouds below 1500 m and no cumulonimbus

TAF: LIPX 171700Z 1718/1803 VRB05KT CAVOK

Weather observations and forecasts of more than 4000 airports (METAR and TAF reports).

The available stations are represented by yellow and red dots on the map.

Hover mouse over dot to see the name of the station.

Then click to see weather observations and forecasts.

To change the map : click on the green buttons with a black cross to zoom in, on the green button with a dash to zoom out, or on the green arrows for adjacent maps.


METAR-TAF: